createdAt,value
2022-10-17T00:00:16.091Z,5.20
2022-10-17T00:02:42.972Z,6.38
2022-10-17T00:05:11.912Z,7.18
2022-10-17T00:07:38.822Z,5.40
2022-10-17T00:10:07.142Z,6.05
2022-10-17T00:12:34.455Z,6.88
2022-10-17T00:15:04.793Z,6.18
2022-10-17T00:17:31.542Z,5.47
2022-10-17T00:20:01.839Z,6.00
2022-10-17T00:22:28.551Z,5.10
2022-10-17T00:24:55.520Z,4.97
2022-10-17T00:27:22.303Z,5.95
2022-10-17T00:29:50.167Z,5.60
2022-10-17T00:32:17.324Z,6.63
2022-10-17T00:34:44.089Z,7.30
2022-10-17T00:37:10.794Z,9.10
2022-10-17T00:39:37.634Z,6.75
2022-10-17T00:42:04.526Z,8.15
2022-10-17T00:44:31.322Z,8.52
2022-10-17T00:46:59.630Z,9.05
2022-10-17T00:49:29.791Z,5.15
2022-10-17T00:52:03.693Z,6.72
2022-10-17T00:54:43.437Z,6.03
2022-10-17T00:57:11.281Z,9.70
2022-10-17T00:59:40.633Z,6.03
2022-10-17T01:02:11.170Z,6.72
2022-10-17T01:04:43.959Z,7.55
2022-10-17T01:07:11.036Z,7.18
2022-10-17T01:09:38.795Z,7.75
2022-10-17T01:12:32.768Z,6.80
2022-10-17T01:15:30.890Z,6.40
2022-10-17T01:18:15.936Z,5.25
2022-10-17T01:21:00.399Z,5.82
2022-10-17T01:24:04.324Z,5.57
2022-10-17T01:27:03.934Z,7.47
2022-10-17T01:30:05.784Z,7.85
2022-10-17T01:32:45.323Z,6.60
2022-10-17T01:35:11.968Z,6.75
2022-10-17T01:37:47.027Z,10.70
2022-10-17T01:40:24.782Z,6.60
2022-10-17T01:43:07.387Z,6.47
2022-10-17T01:45:43.031Z,5.45
2022-10-17T01:48:17.217Z,7.07
2022-10-17T01:51:13.192Z,5.65
2022-10-17T01:53:46.943Z,5.47
2022-10-17T01:56:16.492Z,5.65
2022-10-17T01:58:58.489Z,6.53
2022-10-17T02:01:29.787Z,6.15
2022-10-17T02:03:58.823Z,7.37
2022-10-17T02:06:25.696Z,7.20
2022-10-17T02:08:52.259Z,5.78
2022-10-17T02:11:24.797Z,8.10
2022-10-17T02:14:06.256Z,7.10
2022-10-17T02:17:37.742Z,9.07
2022-10-17T02:20:18.476Z,7.43
2022-10-17T02:23:02.878Z,7.22
2022-10-17T02:25:38.148Z,11.00
2022-10-17T02:28:28.569Z,6.72
2022-10-17T02:31:01.200Z,5.68
2022-10-17T02:33:29.406Z,6.05
2022-10-17T02:36:00.581Z,5.40
2022-10-17T02:38:29.404Z,5.50
2022-10-17T02:40:56.377Z,6.93
2022-10-17T02:43:23.708Z,5.85
2022-10-17T02:45:54.143Z,6.60
2022-10-17T02:48:42.871Z,6.05
2022-10-17T02:51:44.796Z,7.57
2022-10-17T02:54:22.544Z,7.00
2022-10-17T02:56:54.963Z,8.27
2022-10-17T02:59:25.026Z,8.25
2022-10-17T03:01:51.977Z,9.20
2022-10-17T03:04:19.319Z,8.27
2022-10-17T03:06:47.884Z,7.45
2022-10-17T03:09:15.530Z,7.25
2022-10-17T03:11:42.216Z,7.55
2022-10-17T03:14:08.903Z,6.63
2022-10-17T03:16:35.615Z,8.73
2022-10-17T03:19:02.193Z,6.38
2022-10-17T03:21:29.047Z,7.70
2022-10-17T03:23:55.932Z,7.10
2022-10-17T03:26:22.841Z,7.90
2022-10-17T03:28:51.956Z,6.97
2022-10-17T03:31:21.358Z,6.65
2022-10-17T03:33:47.990Z,6.32
2022-10-17T03:36:17.520Z,6.30
2022-10-17T03:38:44.537Z,8.95
2022-10-17T03:41:11.636Z,7.10
2022-10-17T03:43:39.827Z,8.15
2022-10-17T03:46:07.333Z,7.80
2022-10-17T03:48:34.023Z,6.68
2022-10-17T03:51:02.530Z,8.18
2022-10-17T03:53:29.159Z,7.20
2022-10-17T03:55:57.071Z,6.80
2022-10-17T03:58:23.902Z,7.43
2022-10-17T04:00:50.601Z,7.30
2022-10-17T04:03:17.516Z,7.75
2022-10-17T04:05:44.205Z,6.75
2022-10-17T04:08:10.842Z,6.47
2022-10-17T04:10:37.593Z,6.07
2022-10-17T04:13:04.564Z,9.68
2022-10-17T04:15:31.235Z,7.60
2022-10-17T04:17:57.848Z,10.07
2022-10-17T04:20:24.458Z,6.55
2022-10-17T04:22:51.236Z,5.90
2022-10-17T04:25:18.043Z,6.55
2022-10-17T04:27:44.612Z,8.00
2022-10-17T04:30:11.419Z,6.25
2022-10-17T04:32:39.128Z,7.50
2022-10-17T04:35:06.179Z,6.45
2022-10-17T04:37:32.787Z,6.97
2022-10-17T04:39:59.377Z,7.90
2022-10-17T04:42:26.089Z,11.82
2022-10-17T04:44:52.987Z,10.68
2022-10-17T04:47:19.592Z,7.32
2022-10-17T04:49:46.313Z,8.35
2022-10-17T04:52:12.941Z,8.48
2022-10-17T04:54:39.643Z,8.00
2022-10-17T04:57:06.252Z,7.75
2022-10-17T04:59:32.825Z,10.63
2022-10-17T05:01:59.346Z,6.38
2022-10-17T05:04:26.884Z,8.57
2022-10-17T05:06:53.468Z,6.28
2022-10-17T05:09:20.218Z,7.07
2022-10-17T05:11:46.836Z,7.97
2022-10-17T05:14:13.682Z,7.05
2022-10-17T05:16:40.590Z,7.60
2022-10-17T05:19:07.602Z,6.97
2022-10-17T05:21:34.604Z,7.38
2022-10-17T05:24:01.346Z,9.35
2022-10-17T05:26:28.071Z,10.10
2022-10-17T05:28:54.819Z,7.57
2022-10-17T05:31:21.847Z,8.77
2022-10-17T05:33:48.502Z,7.97
2022-10-17T05:36:15.440Z,9.25
2022-10-17T05:38:42.154Z,6.45
2022-10-17T05:41:10.405Z,8.13
2022-10-17T05:43:37.058Z,6.18
2022-10-17T05:46:05.401Z,9.13
2022-10-17T05:48:32.436Z,8.35
2022-10-17T05:51:01.735Z,6.32
2022-10-17T05:53:32.125Z,6.25
2022-10-17T05:56:00.964Z,7.88
2022-10-17T06:01:15.354Z,6.60
2022-10-17T06:03:42.123Z,6.00
2022-10-17T06:06:11.583Z,6.57
2022-10-17T06:08:38.604Z,9.30
2022-10-17T06:11:09.123Z,6.43
2022-10-17T06:13:37.435Z,6.55
2022-10-17T06:16:04.578Z,8.52
2022-10-17T06:18:31.547Z,6.88
2022-10-17T06:21:06.360Z,7.47
2022-10-17T06:23:33.479Z,9.07
2022-10-17T06:26:04.371Z,6.70
2022-10-17T06:28:31.454Z,7.53
2022-10-17T06:30:58.254Z,7.05
2022-10-17T06:33:25.501Z,7.53
2022-10-17T06:35:56.497Z,9.30
2022-10-17T06:38:23.856Z,10.73
2022-10-17T06:40:50.875Z,7.78
2022-10-17T06:43:17.793Z,5.85
2022-10-17T06:45:46.415Z,7.72
2022-10-17T06:48:13.157Z,8.68
2022-10-17T06:50:39.863Z,6.57
2022-10-17T06:53:06.481Z,8.73
2022-10-17T06:55:33.343Z,7.43
2022-10-17T06:57:59.943Z,8.70
2022-10-17T07:00:26.874Z,7.22
2022-10-17T07:02:53.555Z,9.60
2022-10-17T07:05:20.283Z,7.68
2022-10-17T07:07:48.563Z,5.93
2022-10-17T07:10:18.764Z,6.95
2022-10-17T07:12:45.860Z,9.45
2022-10-17T07:15:13.089Z,8.98
2022-10-17T07:17:41.833Z,10.00
2022-10-17T07:20:09.331Z,5.72
2022-10-17T07:22:35.918Z,7.90
2022-10-17T07:25:02.786Z,8.60
2022-10-17T07:27:29.789Z,5.68
2022-10-17T07:29:57.592Z,10.25
2022-10-17T07:32:24.361Z,7.60
2022-10-17T07:34:51.066Z,6.18
2022-10-17T07:37:17.724Z,5.38
2022-10-17T07:39:44.460Z,5.78
2022-10-17T07:42:14.580Z,7.63
2022-10-17T07:44:41.499Z,7.72
2022-10-17T07:47:08.073Z,5.80
2022-10-17T07:49:34.823Z,5.63
2022-10-17T07:52:01.453Z,5.85
2022-10-17T07:54:28.073Z,7.30
2022-10-17T07:56:54.643Z,6.85
2022-10-17T07:59:21.288Z,8.82
2022-10-17T08:01:48.124Z,9.40
2022-10-17T08:04:16.732Z,7.05
2022-10-17T08:06:43.523Z,4.63
2022-10-17T08:09:10.162Z,7.35
2022-10-17T08:11:37.224Z,6.03
2022-10-17T08:14:04.009Z,4.60
2022-10-17T08:16:31.004Z,7.03
2022-10-17T08:18:57.741Z,5.57
2022-10-17T08:21:24.556Z,4.47
2022-10-17T08:23:51.107Z,6.45
2022-10-17T08:26:20.125Z,4.60
2022-10-17T08:28:47.527Z,6.35
2022-10-17T08:31:18.117Z,4.93
2022-10-17T08:33:45.650Z,5.30
2022-10-17T08:36:20.066Z,6.32
2022-10-17T08:38:50.337Z,6.05
2022-10-17T08:42:03.225Z,5.78
2022-10-17T08:44:42.152Z,7.90
2022-10-17T08:47:26.322Z,3.28
2022-10-17T08:50:01.019Z,7.50
2022-10-17T08:52:55.788Z,5.45
2022-10-17T08:55:44.417Z,3.70
2022-10-17T08:58:24.278Z,7.05
2022-10-17T09:01:11.888Z,5.78
2022-10-17T09:04:16.806Z,5.35
2022-10-17T09:06:49.504Z,6.57
2022-10-17T09:09:45.029Z,7.10
2022-10-17T09:12:27.710Z,7.80
2022-10-17T09:15:16.455Z,5.70
2022-10-17T09:18:03.402Z,8.32
2022-10-17T09:20:51.611Z,5.93
2022-10-17T09:23:22.776Z,8.88
2022-10-17T09:25:56.295Z,5.93
2022-10-17T09:28:30.508Z,5.90
2022-10-17T09:31:04.476Z,6.78
2022-10-17T09:33:59.977Z,4.72
2022-10-17T09:36:35.527Z,8.23
2022-10-17T09:39:05.816Z,4.90
2022-10-17T09:41:50.412Z,5.95
2022-10-17T09:44:37.764Z,5.85
2022-10-17T09:47:25.731Z,5.32
2022-10-17T09:49:52.761Z,4.93
2022-10-17T09:52:26.960Z,6.70
2022-10-17T09:55:03.162Z,5.47
2022-10-17T09:57:56.994Z,7.07
2022-10-17T10:00:31.099Z,6.93
2022-10-17T10:03:30.325Z,6.32
2022-10-17T10:06:04.963Z,5.38
2022-10-17T10:08:37.219Z,4.75
2022-10-17T10:11:07.952Z,6.38
2022-10-17T10:13:36.273Z,4.45
2022-10-17T10:16:20.958Z,4.30
2022-10-17T10:18:50.130Z,4.47
2022-10-17T10:21:21.100Z,6.20
2022-10-17T10:23:59.637Z,4.30
2022-10-17T10:26:47.193Z,5.35
2022-10-17T10:29:26.047Z,4.50
2022-10-17T10:31:54.028Z,5.95
2022-10-17T10:34:28.916Z,5.63
2022-10-17T10:37:04.834Z,4.38
2022-10-17T10:39:51.629Z,6.32
2022-10-17T10:42:28.176Z,4.40
2022-10-17T10:44:58.805Z,4.30
2022-10-17T10:47:28.512Z,6.05
2022-10-17T10:50:20.559Z,4.97
2022-10-17T10:52:59.235Z,3.90
2022-10-17T10:55:34.248Z,3.58
2022-10-17T10:58:06.697Z,3.78
2022-10-17T11:00:37.996Z,5.35
2022-10-17T11:03:23.828Z,3.58
2022-10-17T11:06:02.470Z,4.28
2022-10-17T11:08:36.855Z,3.65
2022-10-17T11:11:31.384Z,4.10
2022-10-17T11:14:08.776Z,3.88
2022-10-17T11:16:54.048Z,5.93
2022-10-17T11:20:05.664Z,4.13
2022-10-17T11:22:36.528Z,5.43
2022-10-17T11:25:16.900Z,4.68
2022-10-17T11:27:43.518Z,4.05
2022-10-17T11:30:15.235Z,3.22
2022-10-17T11:32:54.052Z,10.27
2022-10-17T11:35:38.247Z,5.35
2022-10-17T11:38:19.552Z,3.20
2022-10-17T11:40:51.798Z,4.22
2022-10-17T11:43:50.240Z,3.58
2022-10-17T11:46:23.706Z,4.65
2022-10-17T11:49:19.169Z,3.60
2022-10-17T11:52:01.568Z,3.97
2022-10-17T11:54:40.306Z,3.97
2022-10-17T11:57:40.916Z,3.75
2022-10-17T12:00:39.332Z,4.10
2022-10-17T12:03:38.808Z,3.58
2022-10-17T12:06:48.436Z,3.42
2022-10-17T12:09:24.024Z,3.60
2022-10-17T12:11:56.905Z,4.28
2022-10-17T12:14:38.616Z,4.53
2022-10-17T12:17:23.936Z,3.45
2022-10-17T12:19:50.697Z,4.00
2022-10-17T12:22:26.753Z,4.90
2022-10-17T12:25:01.949Z,5.65
2022-10-17T12:27:46.371Z,4.88
2022-10-17T12:30:13.440Z,3.92
2022-10-17T12:33:06.311Z,4.78
2022-10-17T12:35:35.844Z,3.80
2022-10-17T12:38:26.455Z,4.82
2022-10-17T12:40:55.803Z,3.65
2022-10-17T12:43:28.211Z,4.65
2022-10-17T12:46:02.731Z,8.52
2022-10-17T12:48:38.708Z,3.65
2022-10-17T12:51:35.395Z,4.25
2022-10-17T12:54:14.916Z,3.55
2022-10-17T12:56:45.415Z,4.85
2022-10-17T12:59:25.076Z,4.47
2022-10-17T13:01:57.361Z,3.28
2022-10-17T13:04:25.473Z,4.10
2022-10-17T13:06:54.772Z,4.55
2022-10-17T13:09:31.146Z,4.53
2022-10-17T13:12:01.577Z,4.68
2022-10-17T13:14:29.624Z,4.00
2022-10-17T13:17:05.614Z,3.67
2022-10-17T13:19:42.286Z,5.10
2022-10-17T13:22:20.553Z,4.07
2022-10-17T13:24:48.233Z,4.85
2022-10-17T13:27:28.184Z,4.50
2022-10-17T13:29:59.136Z,3.58
2022-10-17T13:32:35.833Z,3.38
2022-10-17T13:35:10.055Z,4.20
2022-10-17T13:37:39.189Z,3.58
2022-10-17T13:40:24.855Z,3.75
2022-10-17T13:42:55.583Z,5.55
2022-10-17T13:45:22.267Z,4.72
2022-10-17T13:47:49.483Z,4.30
2022-10-17T13:50:43.050Z,4.60
2022-10-17T13:53:34.444Z,4.43
2022-10-17T13:56:29.679Z,3.70
2022-10-17T13:58:57.567Z,4.95
2022-10-17T14:01:26.543Z,3.47
2022-10-17T14:04:07.276Z,3.50
2022-10-17T14:06:45.086Z,4.07
2022-10-17T14:09:22.774Z,4.18
2022-10-17T14:12:03.669Z,4.15
2022-10-17T14:14:46.142Z,4.75
2022-10-17T14:17:29.285Z,5.93
2022-10-17T14:20:36.333Z,4.00
2022-10-17T14:25:41.242Z,3.65
2022-10-17T14:28:11.587Z,5.72
2022-10-17T14:30:56.329Z,3.42
2022-10-17T14:33:31.165Z,3.92
2022-10-17T14:36:00.577Z,6.50
2022-10-17T14:38:28.844Z,4.60
2022-10-17T14:41:37.461Z,6.80
2022-10-17T14:44:02.433Z,4.28
2022-10-17T14:46:29.395Z,3.97
2022-10-17T14:49:21.738Z,4.18
2022-10-17T14:52:23.372Z,6.07
2022-10-17T14:54:50.884Z,4.85
2022-10-17T14:57:19.414Z,3.63
2022-10-17T14:59:55.010Z,4.20
2022-10-17T15:02:23.472Z,5.85
2022-10-17T15:04:50.180Z,3.88
2022-10-17T15:07:17.727Z,5.65
2022-10-17T15:09:47.217Z,4.55
2022-10-17T15:12:20.374Z,4.10
2022-10-17T15:14:50.613Z,4.93
2022-10-17T15:17:26.898Z,3.70
2022-10-17T15:19:54.016Z,7.95
2022-10-17T15:22:20.952Z,4.70
2022-10-17T15:24:47.951Z,8.55
2022-10-17T15:27:17.185Z,4.70
2022-10-17T15:29:44.516Z,6.72
2022-10-17T15:32:11.324Z,6.85
2022-10-17T15:34:38.362Z,5.20
2022-10-17T15:37:06.811Z,5.05
2022-10-17T15:39:33.871Z,4.75
2022-10-17T15:42:00.486Z,7.18
2022-10-17T15:44:27.350Z,4.30
2022-10-17T15:46:55.506Z,4.22
2022-10-17T15:49:22.258Z,5.43
2022-10-17T15:51:54.363Z,5.38
2022-10-17T15:54:22.516Z,5.20
2022-10-17T15:56:54.201Z,4.00
2022-10-17T15:59:35.240Z,3.97
2022-10-17T16:02:01.841Z,3.85
2022-10-17T16:04:30.610Z,4.13
2022-10-17T16:06:57.196Z,5.43
2022-10-17T16:09:23.942Z,3.97
2022-10-17T16:11:50.746Z,4.88
2022-10-17T16:14:18.197Z,5.43
2022-10-17T16:16:44.893Z,4.28
2022-10-17T16:19:11.716Z,5.05
2022-10-17T16:21:40.809Z,4.35
2022-10-17T16:24:11.845Z,6.50
2022-10-17T16:26:41.663Z,5.45
2022-10-17T16:29:09.935Z,5.10
2022-10-17T16:31:41.702Z,5.75
2022-10-17T16:34:08.903Z,4.82
2022-10-17T16:36:35.655Z,5.40
2022-10-17T16:39:02.456Z,7.38
2022-10-17T16:41:32.205Z,6.78
2022-10-17T16:44:01.528Z,5.45
2022-10-17T16:46:30.616Z,5.57
2022-10-17T16:48:57.951Z,4.90
2022-10-17T16:51:25.075Z,5.32
2022-10-17T16:53:54.398Z,5.60
2022-10-17T16:56:23.494Z,4.28
2022-10-17T16:58:51.590Z,6.80
2022-10-17T17:01:20.859Z,4.57
2022-10-17T17:03:47.951Z,4.75
2022-10-17T17:06:20.640Z,5.95
2022-10-17T17:08:48.068Z,6.55
2022-10-17T17:11:17.277Z,7.07
2022-10-17T17:13:44.056Z,5.68
2022-10-17T17:16:13.095Z,5.30
2022-10-17T17:18:40.311Z,7.32
2022-10-17T17:21:09.354Z,5.55
2022-10-17T17:23:38.381Z,5.40
2022-10-17T17:26:11.153Z,9.23
2022-10-17T17:28:39.313Z,5.55
2022-10-17T17:31:11.700Z,5.28
2022-10-17T17:33:39.880Z,6.35
2022-10-17T17:36:07.681Z,5.90
2022-10-17T17:38:36.191Z,5.53
2022-10-17T17:41:03.886Z,6.82
2022-10-17T17:43:30.576Z,7.53
2022-10-17T17:45:57.240Z,4.57
2022-10-17T17:48:23.841Z,5.18
2022-10-17T17:50:50.491Z,5.82
2022-10-17T17:53:18.603Z,6.60
2022-10-17T17:55:45.607Z,5.15
2022-10-17T17:58:12.648Z,11.60
2022-10-17T18:00:40.514Z,10.07
2022-10-17T18:03:07.832Z,5.80
2022-10-17T18:05:34.735Z,6.32
2022-10-17T18:08:01.802Z,7.05
2022-10-17T18:10:29.389Z,7.43
2022-10-17T18:12:56.008Z,10.25
2022-10-17T18:15:22.736Z,8.23
2022-10-17T18:17:49.306Z,6.75
2022-10-17T18:20:16.362Z,6.50
2022-10-17T18:22:42.979Z,6.68
2022-10-17T18:25:10.029Z,6.07
2022-10-17T18:27:36.651Z,6.32
2022-10-17T18:30:03.852Z,8.88
2022-10-17T18:32:32.018Z,6.10
2022-10-17T18:35:00.263Z,8.48
2022-10-17T18:37:27.116Z,6.70
2022-10-17T18:39:55.931Z,6.50
2022-10-17T18:42:22.612Z,7.28
2022-10-17T18:44:49.886Z,7.97
2022-10-17T18:47:16.654Z,8.68
2022-10-17T18:49:43.273Z,7.80
2022-10-17T18:52:09.864Z,6.20
2022-10-17T18:54:36.487Z,6.82
2022-10-17T18:57:03.476Z,7.88
2022-10-17T18:59:31.361Z,7.38
2022-10-17T19:01:58.009Z,5.45
2022-10-17T19:04:25.016Z,8.02
2022-10-17T19:06:51.683Z,8.15
2022-10-17T19:09:18.292Z,8.20
2022-10-17T19:11:46.068Z,6.20
2022-10-17T19:14:13.848Z,9.95
2022-10-17T19:16:46.269Z,6.15
2022-10-17T19:19:17.390Z,6.25
2022-10-17T19:21:45.023Z,8.25
2022-10-17T19:24:14.790Z,8.23
2022-10-17T19:26:44.259Z,8.80
2022-10-17T19:29:14.314Z,9.18
2022-10-17T19:31:43.074Z,9.68
2022-10-17T19:34:12.020Z,11.13
2022-10-17T19:36:38.873Z,9.65
2022-10-17T19:39:09.174Z,8.38
2022-10-17T19:41:38.870Z,9.38
2022-10-17T19:44:05.951Z,11.18
2022-10-17T19:46:34.025Z,10.05
2022-10-17T19:49:01.566Z,10.32
2022-10-17T19:51:29.402Z,9.20
2022-10-17T19:54:02.532Z,9.20
2022-10-17T19:56:32.450Z,11.25
2022-10-17T19:59:02.433Z,9.18
2022-10-17T20:01:31.751Z,8.73
2022-10-17T20:03:58.402Z,10.85
2022-10-17T20:06:25.528Z,9.05
2022-10-17T20:08:52.442Z,8.52
2022-10-17T20:11:24.303Z,9.48
2022-10-17T20:13:51.709Z,9.13
2022-10-17T20:16:24.483Z,11.57
2022-10-17T20:18:53.586Z,12.07
2022-10-17T20:21:23.909Z,10.95
2022-10-17T20:23:50.864Z,9.07
2022-10-17T20:29:20.390Z,11.25
2022-10-17T20:31:48.151Z,13.73
2022-10-17T20:34:16.581Z,10.90
2022-10-17T20:36:44.082Z,10.10
2022-10-17T20:39:13.308Z,10.65
2022-10-17T20:41:40.556Z,11.13
2022-10-17T20:44:07.878Z,10.20
2022-10-17T20:46:37.613Z,13.07
2022-10-17T20:49:07.557Z,11.35
2022-10-17T20:51:35.391Z,11.25
2022-10-17T20:54:03.093Z,9.95
2022-10-17T20:56:32.061Z,12.90
2022-10-17T20:59:02.145Z,10.15
2022-10-17T21:01:30.655Z,11.70
2022-10-17T21:04:06.193Z,9.93
2022-10-17T21:06:42.764Z,13.15
2022-10-17T21:09:10.800Z,9.05
2022-10-17T21:11:37.460Z,9.13
2022-10-17T21:14:07.008Z,7.88
2022-10-17T21:16:36.461Z,10.13
2022-10-17T21:19:04.219Z,9.98
2022-10-17T21:21:33.735Z,11.25
2022-10-17T21:24:03.087Z,12.15
2022-10-17T21:26:33.012Z,12.10
2022-10-17T21:29:05.471Z,12.50
2022-10-17T21:31:34.138Z,8.60
2022-10-17T21:34:05.204Z,14.45
2022-10-17T21:36:31.974Z,10.45
2022-10-17T21:38:58.652Z,9.55
2022-10-17T21:41:28.309Z,8.70
2022-10-17T21:43:57.651Z,9.88
2022-10-17T21:46:24.576Z,8.52
2022-10-17T21:48:51.911Z,8.10
2022-10-17T21:51:22.705Z,6.72
2022-10-17T21:53:51.082Z,8.57
2022-10-17T21:56:22.932Z,7.70
2022-10-17T21:58:50.958Z,9.60
2022-10-17T22:01:20.033Z,9.23
2022-10-17T22:03:49.406Z,9.40
2022-10-17T22:09:23.983Z,9.50
2022-10-17T22:14:20.298Z,8.93
2022-10-17T22:16:48.278Z,7.28
2022-10-17T22:19:25.141Z,9.43
2022-10-17T22:21:52.650Z,6.38
2022-10-17T22:26:52.968Z,7.45
2022-10-17T22:29:20.191Z,8.52
2022-10-17T22:31:47.247Z,8.50
2022-10-17T22:34:15.929Z,5.82
2022-10-17T22:36:43.383Z,8.18
2022-10-17T22:39:10.709Z,8.98
2022-10-17T22:41:37.393Z,8.05
2022-10-17T22:44:04.524Z,6.65
2022-10-17T22:46:31.499Z,9.48
2022-10-17T22:48:58.163Z,6.07
2022-10-17T22:51:24.941Z,5.63
2022-10-17T22:53:51.574Z,6.85
2022-10-17T22:56:20.729Z,6.47
2022-10-17T22:58:47.833Z,39.10
2022-10-17T23:01:18.399Z,50.63
2022-10-17T23:03:45.572Z,29.42
2022-10-17T23:06:12.503Z,7.00
2022-10-17T23:08:39.755Z,6.70
2022-10-17T23:11:07.086Z,6.22
2022-10-17T23:13:33.955Z,5.50
2022-10-17T23:16:00.620Z,7.20
2022-10-17T23:18:27.704Z,6.72
2022-10-17T23:20:55.172Z,7.55
2022-10-17T23:23:22.461Z,5.85
2022-10-17T23:25:50.574Z,12.57
2022-10-17T23:28:18.272Z,13.57
2022-10-17T23:30:45.130Z,22.50
2022-10-17T23:33:13.689Z,44.97
2022-10-17T23:35:40.870Z,110.43
2022-10-17T23:38:07.669Z,83.22
2022-10-17T23:40:35.470Z,108.38
2022-10-17T23:43:02.966Z,16.60
2022-10-17T23:45:33.424Z,33.75
2022-10-17T23:48:02.904Z,38.72
2022-10-17T23:50:29.553Z,9.48
2022-10-17T23:52:56.186Z,21.52
2022-10-17T23:55:23.067Z,10.75
2022-10-17T23:57:49.966Z,8.40
